Time;durP1;ratioP1;P1;durP2;ratioP2;P2;SDS_P1;SDS_P2;PMS_P1;PMS_P2;Temp;Humidity;BMP_temperature;BMP_pressure;BME280_temperature;BME280_humidity;BME280_pressure;Samples;Min_cycle;Max_cycle;Signal;HPM_P1;HPM_P2
2022/01/26 00:06:30;;;;;;;0.00;0.00;;;3.50;99.90;;;;;;5001232;28;20217;-70
2022/01/26 00:08:56;;;;;;;0.00;0.00;;;3.50;99.90;;;;;;4983546;28;20068;-70
2022/01/26 00:11:23;;;;;;;0.00;0.00;;;3.50;99.90;;;;;;5000912;28;20364;-70
2022/01/26 00:13:50;;;;;;;0.00;0.00;;;3.50;99.90;;;;;;5001089;28;20317;-70
2022/01/26 00:19:23;;;;;;;0.00;0.00;;;3.60;99.90;;;;;;4957695;28;20113;-70
2022/01/26 00:22:08;;;;;;;0.00;0.00;;;3.60;99.90;;;;;;4983757;28;20028;-69
2022/01/26 00:30:00;;;;;;;0.00;0.00;;;3.50;99.90;;;;;;5001081;28;20094;-70
2022/01/26 00:40:53;;;;;;;0.00;0.00;;;3.40;99.90;;;;;;4969918;28;20112;-69
2022/01/26 00:43:25;;;;;;;0.00;0.00;;;3.40;99.90;;;;;;5000311;28;20014;-70
2022/01/26 00:45:56;;;;;;;0.00;0.00;;;3.40;99.90;;;;;;5000827;28;20019;-69
2022/01/26 00:48:23;;;;;;;0.00;0.00;;;3.40;99.90;;;;;;4982453;28;20086;-70
2022/01/26 00:50:53;;;;;;;0.00;0.00;;;3.40;99.90;;;;;;4983027;28;20025;-70
2022/01/26 00:53:27;;;;;;;0.00;0.00;;;3.40;99.90;;;;;;4982453;28;20090;-71
2022/01/26 00:55:53;;;;;;;0.00;0.00;;;3.40;99.90;;;;;;5000573;28;20019;-69
2022/01/26 00:58:19;;;;;;;0.00;0.00;;;3.30;99.90;;;;;;4982568;28;20060;-70
2022/01/26 01:00:45;;;;;;;0.00;0.00;;;3.30;99.90;;;;;;5000304;28;20045;-70
2022/01/26 01:03:11;;;;;;;0.00;0.00;;;3.30;99.90;;;;;;5000396;28;20019;-70
2022/01/26 01:08:31;;;;;;;0.00;0.00;;;3.30;99.90;;;;;;4976347;28;20034;-71
2022/01/26 01:10:57;;;;;;;0.00;0.00;;;3.40;99.90;;;;;;4981853;28;20088;-68
2022/01/26 01:13:38;;;;;;;0.00;0.00;;;3.30;99.90;;;;;;4999424;28;20296;-69
2022/01/26 01:16:06;;;;;;;0.00;0.00;;;3.30;99.90;;;;;;4982457;28;20033;-69
2022/01/26 01:21:45;;;;;;;0.00;0.00;;;3.30;99.90;;;;;;5000167;28;20038;-71
2022/01/26 01:31:48;;;;;;;0.00;0.00;;;3.30;99.90;;;;;;4999385;28;20153;-70
2022/01/26 01:34:44;;;;;;;0.00;0.00;;;3.30;99.90;;;;;;4982008;28;20018;-69
2022/01/26 01:37:14;;;;;;;0.00;0.00;;;3.40;99.90;;;;;;4996305;28;20041;-68
2022/01/26 01:39:41;;;;;;;0.00;0.00;;;3.40;99.90;;;;;;4981583;28;20029;-69
2022/01/26 01:42:08;;;;;;;0.00;0.00;;;3.50;99.90;;;;;;4999217;28;20089;-68
2022/01/26 01:44:36;;;;;;;0.00;0.00;;;3.50;99.90;;;;;;4981537;28;20069;-67
2022/01/26 01:47:02;;;;;;;0.00;0.00;;;3.50;99.90;;;;;;4981812;28;20097;-70
2022/01/26 01:49:28;;;;;;;0.00;0.00;;;3.50;99.90;;;;;;4998340;28;20364;-68
2022/01/26 01:51:59;;;;;;;0.00;0.00;;;3.50;99.90;;;;;;4981708;28;20049;-69
2022/01/26 01:54:25;;;;;;;0.00;0.00;;;3.40;99.90;;;;;;4981270;28;20088;-70
2022/01/26 01:56:57;;;;;;;0.00;0.00;;;3.40;99.90;;;;;;4998758;28;20025;-69
2022/01/26 01:59:31;;;;;;;0.00;0.00;;;3.40;99.90;;;;;;4981154;28;20073;-70
2022/01/26 02:01:58;;;;;;;0.00;0.00;;;3.40;99.90;;;;;;4981848;28;20352;-69
2022/01/26 02:04:24;;;;;;;0.00;0.00;;;3.30;99.90;;;;;;4981145;28;20040;-69
2022/01/26 02:06:49;;;;;;;0.00;0.00;;;3.30;99.90;;;;;;4999112;28;20297;-68
2022/01/26 02:09:15;;;;;;;0.00;0.00;;;3.40;99.90;;;;;;4998790;28;20045;-69
2022/01/26 02:11:53;;;;;;;0.00;0.00;;;3.40;99.90;;;;;;4998602;28;20258;-69
2022/01/26 02:14:46;;;;;;;0.00;0.00;;;3.40;99.90;;;;;;4998712;28;20225;-69
2022/01/26 02:50:03;;;;;;;0.00;0.00;;;3.30;99.90;;;;;;5001892;28;20105;-71
2022/01/26 02:52:57;;;;;;;0.00;0.00;;;3.20;99.90;;;;;;5001447;28;20190;-72
2022/01/26 03:03:19;;;;;;;;;;;3.20;99.90;;;;;;5002693;28;20046;-71
2022/01/26 03:06:08;;;;;;;0.00;0.00;;;3.20;99.90;;;;;;4984322;28;20129;-71
2022/01/26 03:08:38;;;;;;;0.00;0.00;;;3.20;99.90;;;;;;5001486;28;20034;-69
2022/01/26 03:11:12;;;;;;;0.00;0.00;;;3.20;99.90;;;;;;4984967;28;20022;-70
2022/01/26 03:13:53;;;;;;;0.00;0.00;;;3.20;99.90;;;;;;5001439;28;20015;-69
2022/01/26 03:16:44;;;;;;;0.00;0.00;;;3.20;99.90;;;;;;5002166;28;20309;-69
2022/01/26 03:33:09;;;;;;;0.00;0.00;;;3.20;99.90;;;;;;5001337;28;20160;-69
2022/01/26 03:38:08;;;;;;;0.00;0.00;;;3.20;99.90;;;;;;5001513;28;20306;-69
2022/01/26 03:40:37;;;;;;;0.00;0.00;;;3.20;99.90;;;;;;4983614;28;20392;-70
2022/01/26 03:43:03;;;;;;;0.00;0.00;;;3.20;99.90;;;;;;4983951;28;20097;-70
2022/01/26 03:45:29;;;;;;;0.00;0.00;;;3.30;99.90;;;;;;5000916;28;20015;-70
2022/01/26 03:47:55;;;;;;;0.00;0.00;;;3.20;99.90;;;;;;4983497;28;20029;-70
2022/01/26 03:50:23;;;;;;;0.00;0.00;;;3.20;99.90;;;;;;4983052;28;20033;-70
2022/01/26 03:52:48;;;;;;;0.00;0.00;;;3.20;99.90;;;;;;5000388;28;20019;-70
2022/01/26 03:55:14;;;;;;;0.00;0.00;;;3.20;99.90;;;;;;4983453;28;20077;-70
2022/01/26 03:57:40;;;;;;;0.00;0.00;;;3.20;99.90;;;;;;4983101;28;20019;-70
2022/01/26 04:00:07;;;;;;;0.00;0.00;;;3.20;99.90;;;;;;4983727;28;20041;-70
2022/01/26 04:02:34;;;;;;;0.00;0.00;;;3.20;99.90;;;;;;4983222;28;20026;-70
2022/01/26 04:05:03;;;;;;;0.00;0.00;;;3.20;99.90;;;;;;4983891;28;20033;-70
2022/01/26 04:07:29;;;;;;;0.00;0.00;;;3.20;99.90;;;;;;5000617;28;20132;-69
2022/01/26 04:10:03;;;;;;;0.00;0.00;;;3.20;99.90;;;;;;5000552;28;20264;-70
2022/01/26 04:12:29;;;;;;;0.00;0.00;;;3.20;99.90;;;;;;4983230;28;20023;-70
2022/01/26 04:15:01;;;;;;;0.00;0.00;;;3.20;99.90;;;;;;4983475;28;20019;-70
2022/01/26 04:17:27;;;;;;;0.00;0.00;;;3.30;99.90;;;;;;4982914;28;20025;-70
2022/01/26 04:19:56;;;;;;;0.00;0.00;;;3.10;99.90;;;;;;5000785;28;20055;-69
2022/01/26 04:22:30;;;;;;;0.00;0.00;;;3.20;99.90;;;;;;5001006;28;20018;-70
2022/01/26 04:24:56;;;;;;;0.00;0.00;;;3.10;99.90;;;;;;4983498;28;20018;-70
2022/01/26 04:27:42;;;;;;;0.00;0.00;;;3.20;99.90;;;;;;5000599;28;20109;-69
2022/01/26 04:30:08;;;;;;;0.00;0.00;;;3.10;99.90;;;;;;4983277;28;20032;-70
2022/01/26 04:32:34;;;;;;;0.00;0.00;;;3.10;99.90;;;;;;5000025;28;20018;-70
2022/01/26 04:35:00;;;;;;;0.00;0.00;;;3.10;99.90;;;;;;5000201;28;20036;-70
2022/01/26 04:42:51;;;;;;;0.00;0.00;;;3.10;99.90;;;;;;5000225;28;20182;-70
2022/01/26 04:45:14;;;;;;;0.00;0.00;;;3.00;99.90;;;;;;4999940;28;20124;-69
2022/01/26 04:47:41;;;;;;;0.00;0.00;;;3.00;99.90;;;;;;4999357;28;20026;-69
2022/01/26 04:50:09;;;;;;;0.00;0.00;;;3.10;99.90;;;;;;4983328;28;20337;-68
2022/01/26 04:52:35;;;;;;;0.00;0.00;;;3.00;99.90;;;;;;4982282;28;20408;-69
2022/01/26 04:55:01;;;;;;;0.00;0.00;;;3.10;99.90;;;;;;4983006;28;20027;-69
2022/01/26 04:57:26;;;;;;;0.00;0.00;;;3.00;99.90;;;;;;4982490;28;20301;-69
2022/01/26 04:59:52;;;;;;;0.00;0.00;;;3.00;99.90;;;;;;4982619;28;20038;-68
2022/01/26 05:02:18;;;;;;;0.00;0.00;;;3.00;99.90;;;;;;4999989;28;20026;-68
2022/01/26 05:04:44;;;;;;;0.00;0.00;;;3.00;99.90;;;;;;4981872;28;20025;-68
2022/01/26 05:07:09;;;;;;;0.00;0.00;;;3.00;99.90;;;;;;4982847;28;20041;-68
2022/01/26 05:09:36;;;;;;;0.00;0.00;;;3.00;99.90;;;;;;4999083;28;20033;-69
2022/01/26 05:12:02;;;;;;;0.00;0.00;;;3.00;99.90;;;;;;5000593;28;20081;-68
2022/01/26 05:14:28;;;;;;;0.00;0.00;;;3.00;99.90;;;;;;4999639;28;20374;-69
2022/01/26 05:16:54;;;;;;;0.00;0.00;;;3.00;99.90;;;;;;4982763;28;20339;-68
2022/01/26 05:19:20;;;;;;;0.00;0.00;;;3.00;99.90;;;;;;4982523;28;20026;-68
2022/01/26 05:21:46;;;;;;;0.00;0.00;;;3.00;99.90;;;;;;4998752;28;20336;-67
2022/01/26 05:24:11;;;;;;;0.00;0.00;;;3.00;99.90;;;;;;4999607;28;20026;-70
2022/01/26 05:26:40;;;;;;;0.00;0.00;;;3.00;99.90;;;;;;4981659;28;20065;-69
2022/01/26 05:29:07;;;;;;;0.00;0.00;;;3.00;99.90;;;;;;4982398;28;20026;-69
2022/01/26 05:31:32;;;;;;;0.00;0.00;;;3.00;99.90;;;;;;4998286;28;20018;-67
2022/01/26 05:33:58;;;;;;;0.00;0.00;;;3.00;99.90;;;;;;4981949;28;20093;-67
2022/01/26 05:36:24;;;;;;;0.00;0.00;;;3.00;99.90;;;;;;4982228;28;20053;-68
2022/01/26 05:38:50;;;;;;;0.00;0.00;;;3.00;99.90;;;;;;4981678;28;20035;-68
2022/01/26 05:41:16;;;;;;;0.00;0.00;;;3.10;99.90;;;;;;4999389;28;20042;-70
2022/01/26 05:43:41;;;;;;;0.00;0.00;;;3.00;99.90;;;;;;4981676;28;20092;-70
2022/01/26 05:46:16;;;;;;;0.00;0.00;;;3.00;99.90;;;;;;4982099;28;20086;-70
2022/01/26 05:48:45;;;;;;;0.00;0.00;;;3.10;99.90;;;;;;4981734;28;20029;-69
2022/01/26 05:51:12;;;;;;;0.00;0.00;;;3.00;99.90;;;;;;4982281;28;20085;-69
2022/01/26 05:53:40;;;;;;;0.00;0.00;;;3.00;99.90;;;;;;4981337;28;20276;-69
2022/01/26 05:56:06;;;;;;;0.00;0.00;;;3.10;99.90;;;;;;4982091;28;20339;-70
2022/01/26 05:58:32;;;;;;;0.00;0.00;;;3.00;99.90;;;;;;4998807;28;20098;-70
2022/01/26 06:01:00;;;;;;;0.00;0.00;;;3.10;99.90;;;;;;4981697;28;20309;-70
2022/01/26 06:03:28;;;;;;;0.00;0.00;;;3.10;99.90;;;;;;4998921;28;20046;-70
2022/01/26 06:05:54;;;;;;;0.00;0.00;;;3.10;99.90;;;;;;4999159;28;20047;-69
2022/01/26 06:08:24;;;;;;;0.00;0.00;;;3.10;99.90;;;;;;4981737;28;20022;-68
2022/01/26 06:10:51;;;;;;;0.00;0.00;;;3.10;99.90;;;;;;4981461;28;20297;-69
2022/01/26 06:13:17;;;;;;;0.00;0.00;;;3.10;99.90;;;;;;4998911;28;20022;-68
2022/01/26 06:15:43;;;;;;;0.00;0.00;;;3.10;99.90;;;;;;4981675;28;20105;-70
2022/01/26 06:18:10;;;;;;;0.00;0.00;;;3.10;99.90;;;;;;4981582;28;20022;-71
2022/01/26 06:20:37;;;;;;;0.00;0.00;;;3.10;99.90;;;;;;4998420;28;20019;-73
2022/01/26 06:23:04;;;;;;;0.00;0.00;;;3.10;99.90;;;;;;4999307;28;20018;-71
2022/01/26 06:25:30;;;;;;;0.00;0.00;;;3.10;99.90;;;;;;4998484;28;20025;-71
2022/01/26 06:27:58;;;;;;;0.00;0.00;;;3.10;99.90;;;;;;4981325;28;20117;-71
2022/01/26 06:30:25;;;;;;;0.00;0.00;;;3.10;99.90;;;;;;4981742;28;20026;-71
2022/01/26 06:32:51;;;;;;;0.00;0.00;;;3.10;99.90;;;;;;4998631;28;20030;-70
2022/01/26 06:35:17;;;;;;;0.00;0.00;;;3.10;99.90;;;;;;4999041;28;20014;-71
2022/01/26 06:37:46;;;;;;;0.00;0.00;;;3.10;99.90;;;;;;4981061;28;20029;-70
2022/01/26 06:40:12;;;;;;;;;;;3.10;99.90;;;;;;4999365;28;20064;-71
2022/01/26 06:42:51;;;;;;;0.00;0.00;;;3.10;99.90;;;;;;4980672;28;19906;-70
2022/01/26 06:45:20;;;;;;;0.00;0.00;;;3.10;99.90;;;;;;4981562;28;20201;-68
2022/01/26 06:50:11;;;;;;;0.00;0.00;;;3.10;99.90;;;;;;4998861;28;20046;-69
2022/01/26 06:52:37;;;;;;;0.00;0.00;;;3.10;99.90;;;;;;4980730;28;20041;-69
2022/01/26 06:55:04;;;;;;;0.00;0.00;;;3.10;99.90;;;;;;4998464;28;20328;-69
2022/01/26 06:57:30;;;;;;;0.00;0.00;;;3.10;99.90;;;;;;4998313;28;20143;-69
2022/01/26 06:59:55;;;;;;;0.00;0.00;;;3.10;99.90;;;;;;4998080;28;20228;-69
2022/01/26 07:02:21;;;;;;;0.00;0.00;;;3.10;99.90;;;;;;4980981;28;20216;-69
2022/01/26 07:04:47;;;;;;;0.00;0.00;;;3.10;99.90;;;;;;4981148;28;20324;-70
2022/01/26 07:07:12;;;;;;;0.00;0.00;;;3.10;99.90;;;;;;4998129;28;20026;-71
2022/01/26 07:09:38;;;;;;;0.00;0.00;;;3.10;99.90;;;;;;4980577;28;20029;-70
2022/01/26 07:12:04;;;;;;;0.00;0.00;;;3.10;99.90;;;;;;4980977;28;20022;-70
2022/01/26 07:22:42;;;;;;;0.00;0.00;;;3.10;99.90;;;;;;4998423;28;20025;-70
2022/01/26 07:25:08;;;;;;;0.00;0.00;;;3.10;99.90;;;;;;4980667;28;20034;-70
2022/01/26 07:27:34;;;;;;;0.00;0.00;;;3.10;99.90;;;;;;4996729;28;20066;-71
2022/01/26 07:30:00;;;;;;;0.00;0.00;;;3.10;99.90;;;;;;4997557;28;20046;-71
2022/01/26 07:32:28;;;;;;;0.00;0.00;;;3.10;99.90;;;;;;4982034;28;20090;-71
2022/01/26 07:34:54;;;;;;;0.00;0.00;;;3.10;99.90;;;;;;4982587;28;20037;-70
2022/01/26 07:37:39;;;;;;;0.00;0.00;;;3.10;99.90;;;;;;4997168;28;20027;-68
2022/01/26 07:40:09;;;;;;;0.00;0.00;;;3.10;99.90;;;;;;4997211;28;20314;-69
2022/01/26 07:42:35;;;;;;;0.00;0.00;;;3.10;99.90;;;;;;4996790;28;20418;-68
2022/01/26 07:45:06;;;;;;;0.00;0.00;;;3.20;99.90;;;;;;4996834;28;20023;-68
2022/01/26 07:47:33;;;;;;;0.00;0.00;;;3.10;99.90;;;;;;4991736;28;20053;-68
2022/01/26 07:50:00;;;;;;;0.00;0.00;;;3.10;99.90;;;;;;4997131;28;20026;-67
2022/01/26 07:52:28;;;;;;;0.00;0.00;;;3.10;99.90;;;;;;4996612;28;20022;-65
2022/01/26 07:54:54;;;;;;;0.00;0.00;;;3.10;99.90;;;;;;4996460;28;20032;-71
2022/01/26 07:57:21;;;;;;;0.00;0.00;;;3.10;99.90;;;;;;4995864;28;20027;-70
2022/01/26 07:59:46;;;;;;;0.00;0.00;;;3.10;99.90;;;;;;4978228;28;20029;-69
2022/01/26 08:02:12;;;;;;;0.00;0.00;;;3.10;99.90;;;;;;4979562;28;20046;-70
2022/01/26 08:04:38;;;;;;;0.00;0.00;;;3.20;99.90;;;;;;4995598;28;20058;-71
2022/01/26 08:07:04;;;;;;;0.00;0.00;;;3.20;99.90;;;;;;4996605;28;20022;-70
2022/01/26 08:12:15;;;;;;;0.00;0.00;;;3.10;99.90;;;;;;4980874;28;20100;-71
2022/01/26 08:14:45;;;;;;;0.00;0.00;;;3.10;99.90;;;;;;4996139;28;20018;-68
2022/01/26 08:17:11;;;;;;;0.00;0.00;;;3.10;99.90;;;;;;4996179;28;20030;-70
2022/01/26 08:19:37;;;;;;;0.00;0.00;;;3.10;99.90;;;;;;4980564;28;20031;-68
2022/01/26 08:22:04;;;;;;;0.00;0.00;;;3.20;99.90;;;;;;4996506;28;20034;-69
2022/01/26 08:24:30;;;;;;;0.00;0.00;;;3.10;99.90;;;;;;4995482;28;20125;-68
2022/01/26 08:27:06;;;;;;;0.00;0.00;;;3.10;99.90;;;;;;4995964;28;20078;-68
2022/01/26 08:29:39;;;;;;;0.00;0.00;;;3.10;99.90;;;;;;4980592;28;20428;-68
2022/01/26 08:32:05;;;;;;;0.00;0.00;;;3.10;99.90;;;;;;4981094;28;20034;-69
2022/01/26 08:34:31;;;;;;;0.00;0.00;;;3.20;99.90;;;;;;4995601;28;20045;-67
2022/01/26 08:36:57;;;;;;;0.00;0.00;;;3.20;99.90;;;;;;4995198;28;20022;-70
2022/01/26 08:39:22;;;;;;;0.00;0.00;;;3.20;99.90;;;;;;4980519;28;20027;-70
2022/01/26 08:41:48;;;;;;;0.00;0.00;;;3.20;99.90;;;;;;4981138;28;20031;-71
2022/01/26 08:44:14;;;;;;;0.00;0.00;;;3.10;99.90;;;;;;4995046;28;20069;-70
2022/01/26 08:46:41;;;;;;;0.00;0.00;;;3.20;99.90;;;;;;4980797;28;20023;-70
2022/01/26 08:49:07;;;;;;;0.00;0.00;;;3.20;99.90;;;;;;4980721;28;20332;-71
2022/01/26 08:51:33;;;;;;;0.00;0.00;;;3.20;99.90;;;;;;4995450;28;20244;-68
2022/01/26 08:53:59;;;;;;;0.00;0.00;;;3.20;99.90;;;;;;4980445;28;20018;-69
2022/01/26 08:56:25;;;;;;;0.00;0.00;;;3.20;99.90;;;;;;4993278;28;20030;-68
2022/01/26 08:58:53;;;;;;;0.00;0.00;;;3.10;99.90;;;;;;4993449;28;20030;-71
2022/01/26 09:01:19;;;;;;;0.00;0.00;;;3.20;99.90;;;;;;4994803;28;20030;-70
2022/01/26 09:03:45;;;;;;;0.00;0.00;;;3.20;99.90;;;;;;4979636;28;20019;-71
2022/01/26 09:06:11;;;;;;;0.00;0.00;;;3.20;99.90;;;;;;4995684;28;20030;-67
2022/01/26 09:08:40;;;;;;;0.00;0.00;;;3.10;99.90;;;;;;4983457;28;20070;-68
2022/01/26 09:11:06;;;;;;;0.00;0.00;;;3.20;99.90;;;;;;4978318;28;20515;-68
2022/01/26 09:13:34;;;;;;;0.00;0.00;;;3.20;99.90;;;;;;4978350;28;20328;-68
2022/01/26 09:16:03;;;;;;;0.00;0.00;;;3.20;99.90;;;;;;4979694;28;20104;-68
2022/01/26 09:18:46;;;;;;;0.00;0.00;;;3.30;99.90;;;;;;4978271;28;20329;-68
2022/01/26 09:21:12;;;;;;;0.00;0.00;;;3.20;99.90;;;;;;4980179;28;20023;-68
2022/01/26 09:23:37;;;;;;;0.00;0.00;;;3.30;99.90;;;;;;4994326;28;20042;-68
2022/01/26 09:26:04;;;;;;;0.00;0.00;;;3.20;99.90;;;;;;4980430;28;20022;-68
2022/01/26 09:28:30;;;;;;;0.00;0.00;;;3.20;99.90;;;;;;4998139;28;20018;-68
2022/01/26 09:30:55;;;;;;;0.00;0.00;;;3.20;99.90;;;;;;4981793;28;20029;-70
2022/01/26 09:33:21;;;;;;;0.00;0.00;;;3.20;99.90;;;;;;4981159;28;20018;-69
2022/01/26 09:35:48;;;;;;;0.00;0.00;;;3.20;99.90;;;;;;4999646;28;20022;-70
2022/01/26 09:38:14;;;;;;;0.00;0.00;;;3.30;99.90;;;;;;4978955;28;20105;-67
2022/01/26 09:40:40;;;;;;;0.00;0.00;;;3.20;99.90;;;;;;4979636;28;20027;-69
2022/01/26 09:43:06;;;;;;;0.00;0.00;;;3.20;99.90;;;;;;4998655;28;20093;-68
2022/01/26 09:45:35;;;;;;;0.00;0.00;;;3.30;99.90;;;;;;4980936;28;20283;-70
2022/01/26 09:48:02;;;;;;;0.00;0.00;;;3.30;99.90;;;;;;4981168;28;20065;-69
2022/01/26 09:50:28;;;;;;;0.00;0.00;;;3.30;99.90;;;;;;4980782;28;20030;-66
2022/01/26 09:52:55;;;;;;;0.00;0.00;;;3.30;99.90;;;;;;4981412;28;20057;-71
2022/01/26 09:55:21;;;;;;;0.00;0.00;;;3.30;99.90;;;;;;4998398;28;20312;-68
2022/01/26 09:57:48;;;;;;;0.00;0.00;;;3.30;99.90;;;;;;4981040;28;20019;-69
2022/01/26 10:00:14;;;;;;;0.00;0.00;;;3.20;99.90;;;;;;4998444;28;20054;-69
2022/01/26 10:02:43;;;;;;;0.00;0.00;;;3.30;99.90;;;;;;4979806;28;20249;-68
2022/01/26 10:05:11;;;;;;;0.00;0.00;;;3.40;99.90;;;;;;4981372;28;20022;-68
2022/01/26 10:08:02;;;;;;;0.00;0.00;;;3.30;99.90;;;;;;4980590;28;20429;-67
2022/01/26 10:15:27;;;;;;;0.00;0.00;;;3.30;99.90;;;;;;4980837;28;20026;-69
2022/01/26 10:18:41;;;;;;;0.00;0.00;;;3.30;99.90;;;;;;4998621;28;20310;-69
2022/01/26 10:21:08;;;;;;;0.00;0.00;;;3.30;99.90;;;;;;4980643;28;20089;-66
2022/01/26 10:23:40;;;;;;;0.00;0.00;;;3.40;99.90;;;;;;4980199;28;20022;-68
2022/01/26 10:26:15;;;;;;;0.00;0.00;;;3.40;99.90;;;;;;4998037;28;20022;-67
2022/01/26 10:28:41;;;;;;;0.00;0.00;;;3.40;99.90;;;;;;4998202;28;20022;-67
2022/01/26 10:31:14;;;;;;;0.00;0.00;;;3.30;99.90;;;;;;4981090;28;20029;-67
2022/01/26 10:33:40;;;;;;;0.00;0.00;;;3.30;99.90;;;;;;4997988;28;20010;-67
2022/01/26 10:36:06;;;;;;;0.00;0.00;;;3.40;99.90;;;;;;4998113;28;20089;-68
2022/01/26 10:38:31;;;;;;;0.00;0.00;;;3.30;99.90;;;;;;4998303;28;20130;-67
2022/01/26 10:41:16;;;;;;;0.00;0.00;;;3.40;99.90;;;;;;4998527;28;20026;-67
2022/01/26 10:43:49;;;;;;;0.00;0.00;;;3.40;99.90;;;;;;4997830;28;20033;-68
2022/01/26 10:46:31;;;;;;;0.00;0.00;;;3.40;99.90;;;;;;4980790;28;20026;-67
2022/01/26 10:57:04;;;;;;;0.00;0.00;;;3.50;99.90;;;;;;4996572;28;20190;-67
2022/01/26 10:59:31;;;;;;;0.00;0.00;;;3.40;99.90;;;;;;4998076;28;20026;-67
2022/01/26 11:02:01;;;;;;;0.00;0.00;;;3.50;99.90;;;;;;5001761;28;20026;-67
2022/01/26 11:04:28;;;;;;;0.00;0.00;;;3.50;99.90;;;;;;4983555;28;20018;-67
2022/01/26 11:06:54;;;;;;;0.00;0.00;;;3.50;99.90;;;;;;4984318;28;20114;-68
2022/01/26 11:09:24;;;;;;;0.00;0.00;;;3.50;99.90;;;;;;4967597;28;20036;-68
2022/01/26 11:12:10;;;;;;;0.00;0.00;;;3.50;99.90;;;;;;5001970;28;20022;-66
2022/01/26 11:14:45;;;;;;;0.00;0.00;;;3.50;99.90;;;;;;4983535;28;20372;-68
2022/01/26 11:17:37;;;;;;;0.00;0.00;;;3.50;99.90;;;;;;4984426;28;20041;-68
2022/01/26 11:20:34;;;;;;;0.00;0.00;;;3.60;99.90;;;;;;4983949;28;20149;-68
2022/01/26 11:23:02;;;;;;;0.00;0.00;;;3.60;99.90;;;;;;4979875;28;20034;-68
2022/01/26 11:25:30;;;;;;;0.00;0.00;;;3.70;99.90;;;;;;4982837;28;20340;-70
2022/01/26 11:27:58;;;;;;;0.00;0.00;;;3.70;99.90;;;;;;4983912;28;20046;-80
2022/01/26 11:30:33;;;;;;;0.00;0.00;;;3.70;99.90;;;;;;4984138;28;20059;-77
2022/01/26 11:33:01;;;;;;;0.00;0.00;;;3.60;99.90;;;;;;4984982;28;20065;-79
2022/01/26 11:35:29;;;;;;;0.00;0.00;;;3.70;99.90;;;;;;5001589;28;20014;-77
2022/01/26 11:46:37;;;;;;;0.00;0.00;;;3.60;99.90;;;;;;4961561;28;20030;-77
2022/01/26 11:49:10;;;;;;;0.00;0.00;;;3.60;99.90;;;;;;5001396;28;20049;-82
2022/01/26 11:51:50;;;;;;;0.00;0.00;;;3.70;99.90;;;;;;5001147;28;20025;-75
2022/01/26 11:54:15;;;;;;;0.00;0.00;;;3.70;99.90;;;;;;4983958;28;20022;-73
2022/01/26 11:56:59;;;;;;;0.00;0.00;;;3.70;99.90;;;;;;4984438;28;20025;-83
2022/01/26 11:59:27;;;;;;;0.00;0.00;;;3.70;99.90;;;;;;5001349;28;20026;-76
2022/01/26 12:02:20;;;;;;;0.00;0.00;;;3.70;99.90;;;;;;4984194;28;20052;-81
2022/01/26 12:04:44;;;;;;;0.00;0.00;;;3.70;99.90;;;;;;5000459;28;20100;-82
2022/01/26 12:07:23;;;;;;;0.00;0.00;;;3.70;99.90;;;;;;4984359;28;20024;-77
2022/01/26 12:09:49;;;;;;;0.00;0.00;;;3.70;99.90;;;;;;4984500;28;20034;-86
2022/01/26 12:12:20;;;;;;;0.00;0.00;;;3.70;99.90;;;;;;5000665;28;20054;-73
2022/01/26 12:15:08;;;;;;;0.00;0.00;;;3.70;99.90;;;;;;5001123;28;20237;-82
2022/01/26 12:17:40;;;;;;;0.00;0.00;;;3.80;99.90;;;;;;4983808;28;20327;-78
2022/01/26 12:45:21;;;;;;;0.00;0.00;;;3.80;99.90;;;;;;5002060;28;20022;-82
2022/01/26 12:47:50;;;;;;;0.00;0.00;;;3.80;99.90;;;;;;4984115;28;20089;-88
2022/01/26 12:50:15;;;;;;;;;;;3.80;99.90;;;;;;4984723;28;20102;-81
2022/01/26 12:52:48;;;;;;;0.00;0.00;;;3.80;99.90;;;;;;4983844;28;20097;-85
2022/01/26 12:55:25;;;;;;;0.00;0.00;;;3.80;99.90;;;;;;5000833;28;20018;-76
2022/01/26 12:57:51;;;;;;;0.00;0.00;;;3.80;99.90;;;;;;5000080;28;20018;-74
2022/01/26 13:00:18;;;;;;;0.00;0.00;;;3.80;99.90;;;;;;4982949;28;20101;-77
2022/01/26 13:02:44;;;;;;;0.00;0.00;;;3.80;99.90;;;;;;4999886;28;20018;-75
2022/01/26 13:05:10;;;;;;;0.00;0.00;;;3.80;99.90;;;;;;4982891;28;20026;-72
2022/01/26 13:07:36;;;;;;;0.00;0.00;;;3.80;99.90;;;;;;4982062;28;20022;-74
2022/01/26 13:10:14;;;;;;;0.00;0.00;;;3.80;99.90;;;;;;5000386;28;20033;-72
2022/01/26 13:12:40;;;;;;;0.00;0.00;;;3.80;99.90;;;;;;4981737;28;20053;-72
2022/01/26 13:15:28;;;;;;;0.00;0.00;;;3.80;99.90;;;;;;4983069;28;20023;-81
2022/01/26 13:18:02;;;;;;;0.00;0.00;;;3.80;99.90;;;;;;4999808;28;20030;-75
2022/01/26 13:21:06;;;;;;;0.00;0.00;;;3.80;99.90;;;;;;4982470;28;20029;-80
2022/01/26 13:34:15;;;;;;;0.00;0.00;;;3.80;99.90;;;;;;4999944;28;20022;-79
2022/01/26 13:36:10;;;;;;;0.00;0.00;;;3.70;99.90;;;;;;4986330;28;20336;-77
2022/01/26 13:44:29;;;;;;;0.00;0.00;;;3.80;99.90;;;;;;4999769;28;20061;-80
2022/01/26 13:52:15;;;;;;;0.00;0.00;;;3.80;99.90;;;;;;4999562;28;20429;-77
2022/01/26 13:59:53;;;;;;;0.00;0.00;;;3.70;99.90;;;;;;4999451;28;20033;-82
2022/01/26 14:02:19;;;;;;;;;;;3.70;99.90;;;;;;4999891;28;20041;-77
2022/01/26 14:04:45;;;;;;;0.00;0.00;;;3.60;99.90;;;;;;4998906;28;19906;-79
2022/01/26 14:07:10;;;;;;;0.00;0.00;;;3.70;99.90;;;;;;4999599;28;20089;-81
2022/01/26 14:09:37;;;;;;;0.00;0.00;;;3.60;99.90;;;;;;4998542;28;20026;-73
2022/01/26 14:12:05;;;;;;;0.00;0.00;;;3.70;99.90;;;;;;4981229;28;20019;-70
2022/01/26 14:14:35;;;;;;;0.00;0.00;;;3.70;99.90;;;;;;4981407;28;20069;-78
2022/01/26 14:17:03;;;;;;;0.00;0.00;;;3.60;99.90;;;;;;4999364;28;20301;-85
2022/01/26 14:19:49;;;;;;;0.00;0.00;;;3.60;99.90;;;;;;4981692;28;20026;-79
2022/01/26 15:44:03;;;;;;;0.00;0.00;;;3.60;99.90;;;;;;5002466;28;20038;-73
2022/01/26 15:50:10;;;;;;;0.00;0.00;;;3.70;99.90;;;;;;5002616;28;20097;-80
2022/01/26 15:52:15;;;;;;;0.00;0.00;;;3.70;99.90;;;;;;4989226;28;20105;-81
2022/01/26 16:21:27;;;;;;;0.00;0.00;;;3.60;99.90;;;;;;5006154;28;20044;-85
2022/01/26 16:35:17;;;;;;;0.00;0.00;;;3.60;99.90;;;;;;5002211;28;20026;-83
2022/01/26 17:21:16;;;;;;;0.00;0.00;;;3.70;99.90;;;;;;5000768;28;20058;-85
2022/01/26 17:24:22;;;;;;;0.00;0.00;;;3.70;99.90;;;;;;5001806;28;20306;-80
2022/01/26 17:43:39;;;;;;;0.00;0.00;;;3.70;99.90;;;;;;5000932;28;20029;-82
2022/01/26 18:31:51;;;;;;;0.00;0.00;;;3.60;99.90;;;;;;4999959;28;20058;-81
2022/01/26 18:49:21;;;;;;;0.00;0.00;;;3.60;99.90;;;;;;5000668;28;20033;-81
2022/01/26 18:51:55;;;;;;;0.00;0.00;;;3.60;99.90;;;;;;4983009;28;20057;-74
2022/01/26 18:54:25;;;;;;;0.00;0.00;;;3.60;99.90;;;;;;5000986;28;20022;-81
2022/01/26 18:56:55;;;;;;;0.00;0.00;;;3.60;99.90;;;;;;4984126;28;20018;-81
2022/01/26 18:59:22;;;;;;;0.00;0.00;;;3.60;99.90;;;;;;4983891;28;20023;-83
2022/01/26 19:01:51;;;;;;;0.00;0.00;;;3.60;99.90;;;;;;4983325;28;20026;-81
2022/01/26 19:04:24;;;;;;;0.00;0.00;;;3.60;99.90;;;;;;4999796;28;20034;-80
2022/01/26 19:06:52;;;;;;;0.00;0.00;;;3.70;99.90;;;;;;5001417;28;20018;-79
2022/01/26 19:09:21;;;;;;;0.00;0.00;;;3.60;99.90;;;;;;4982876;28;20030;-76
2022/01/26 19:11:48;;;;;;;0.00;0.00;;;3.60;99.90;;;;;;4999518;28;20018;-78
2022/01/26 19:14:13;;;;;;;0.00;0.00;;;3.70;99.90;;;;;;4982710;28;20035;-81
2022/01/26 19:16:45;;;;;;;0.00;0.00;;;3.60;99.90;;;;;;4999187;28;20022;-80
2022/01/26 19:20:02;;;;;;;0.00;0.00;;;3.60;99.90;;;;;;4982534;28;20037;-81
2022/01/26 19:27:14;;;;;;;;;;;3.60;99.90;;;;;;5003629;28;20093;-82
2022/01/26 19:52:57;;;;;;;0.00;0.00;;;3.50;99.90;;;;;;5003131;28;20021;-84
2022/01/26 19:55:24;;;;;;;0.00;0.00;;;3.50;99.90;;;;;;5003306;28;20240;-84
2022/01/26 19:57:52;;;;;;;0.00;0.00;;;3.50;99.90;;;;;;4985403;28;20126;-81
2022/01/26 20:00:17;;;;;;;0.00;0.00;;;3.50;99.90;;;;;;5002525;28;20031;-82
2022/01/26 20:02:43;;;;;;;0.00;0.00;;;3.50;99.90;;;;;;5002433;28;20025;-78
2022/01/26 20:05:14;;;;;;;0.00;0.00;;;3.50;99.90;;;;;;4985375;28;20053;-78
2022/01/26 20:07:41;;;;;;;0.00;0.00;;;3.50;99.90;;;;;;4985142;28;20267;-83
2022/01/26 20:10:07;;;;;;;0.00;0.00;;;3.60;99.90;;;;;;4984862;28;20297;-79
2022/01/26 20:15:06;;;;;;;0.00;0.00;;;3.60;99.90;;;;;;5002670;28;20022;-79
2022/01/26 20:17:32;;;;;;;0.00;0.00;;;3.60;99.90;;;;;;5002364;28;20320;-80
2022/01/26 20:19:59;;;;;;;0.00;0.00;;;3.60;99.90;;;;;;4985137;28;20026;-81
2022/01/26 20:22:25;;;;;;;0.00;0.00;;;3.60;99.90;;;;;;4985142;28;20023;-83
2022/01/26 20:24:51;;;;;;;0.00;0.00;;;3.60;99.90;;;;;;4984785;28;20029;-82
2022/01/26 20:27:19;;;;;;;0.00;0.00;;;3.70;99.90;;;;;;4984965;28;20050;-81
2022/01/26 20:29:51;;;;;;;0.00;0.00;;;3.70;99.90;;;;;;5001990;28;20028;-82
2022/01/26 20:32:17;;;;;;;0.00;0.00;;;3.60;99.90;;;;;;4984363;28;20069;-80
2022/01/26 20:34:43;;;;;;;0.00;0.00;;;3.70;99.90;;;;;;4984463;28;20306;-81
2022/01/26 20:37:09;;;;;;;0.00;0.00;;;3.70;99.90;;;;;;4985015;28;20101;-79
2022/01/26 20:39:35;;;;;;;0.00;0.00;;;3.70;99.90;;;;;;5001611;28;20022;-83
2022/01/26 20:42:01;;;;;;;0.00;0.00;;;3.70;99.90;;;;;;4984590;28;20026;-80
2022/01/26 20:44:27;;;;;;;0.00;0.00;;;3.70;99.90;;;;;;4984678;28;20050;-82
2022/01/26 20:46:54;;;;;;;0.00;0.00;;;3.70;99.90;;;;;;5002166;28;20018;-79
2022/01/26 20:49:20;;;;;;;0.00;0.00;;;3.70;99.90;;;;;;4984764;28;20029;-75